Weather at Fitchburg Municipal Airport

Public forecast

Using degrees Fahrenheit for public forecast. Weather courtesy of forecast.io.

Current aviation weather report (METAR) for Fitchburg Municipal Airport

Retrieved 2020/10/28 00:52 UTC (44 minutes ago):

KFIT 280052Z AUTO 00000KT 10SM OVC049 09/04 A3018 RMK AO2 SLP223 T00890039

Closest aviation forecast (TAF) to Fitchburg Municipal Airport

Closest forecast is Worcester Regional Airport, 18.0 nm (33.3 km) SSW. Retrieved 2020-10-28 00:30 UTC (1 hour ago):

TAF KORH 272328Z 2800/2824 00000KT P6SM OVC035 FM280300 00000KT P6SM BKN045 FM280900 00000KT 5SM BR VCSH OVC025 FM281200 00000KT 2SM BR VCSH BKN008 FM281500 21004KT 4SM BR VCSH BKN008 FM282000 24006KT P6SM SCT020